sensor_id;sensor_type;location;lat;lon;timestamp;P1;durP1;ratioP1;P2;durP2;ratioP2
80891;SDS011;70343;51.530;5.050;2023-09-08T00:02:06;9.68;;;8.30;;
80891;SDS011;70343;51.530;5.050;2023-09-08T00:04:31;9.43;;;7.57;;
80891;SDS011;70343;51.530;5.050;2023-09-08T00:06:58;9.63;;;8.07;;
80891;SDS011;70343;51.530;5.050;2023-09-08T00:09:24;9.02;;;7.72;;
80891;SDS011;70343;51.530;5.050;2023-09-08T00:11:49;12.38;;;8.27;;
80891;SDS011;70343;51.530;5.050;2023-09-08T00:14:15;9.07;;;7.93;;
80891;SDS011;70343;51.530;5.050;2023-09-08T00:16:40;10.95;;;8.25;;
80891;SDS011;70343;51.530;5.050;2023-09-08T00:19:08;9.23;;;7.93;;
80891;SDS011;70343;51.530;5.050;2023-09-08T00:21:35;8.30;;;7.40;;
80891;SDS011;70343;51.530;5.050;2023-09-08T00:24:02;10.63;;;8.55;;
80891;SDS011;70343;51.530;5.050;2023-09-08T00:26:29;9.68;;;8.68;;
80891;SDS011;70343;51.530;5.050;2023-09-08T00:28:54;8.52;;;7.38;;
80891;SDS011;70343;51.530;5.050;2023-09-08T00:31:20;9.25;;;8.02;;
80891;SDS011;70343;51.530;5.050;2023-09-08T00:33:45;8.60;;;7.28;;
80891;SDS011;70343;51.530;5.050;2023-09-08T00:36:11;8.68;;;7.63;;
80891;SDS011;70343;51.530;5.050;2023-09-08T00:38:38;9.13;;;7.60;;
80891;SDS011;70343;51.530;5.050;2023-09-08T00:41:06;9.70;;;8.00;;
80891;SDS011;70343;51.530;5.050;2023-09-08T00:43:32;10.85;;;8.25;;
80891;SDS011;70343;51.530;5.050;2023-09-08T00:45:58;10.07;;;7.95;;
80891;SDS011;70343;51.530;5.050;2023-09-08T00:48:24;9.90;;;8.27;;
80891;SDS011;70343;51.530;5.050;2023-09-08T00:50:50;10.00;;;8.20;;
80891;SDS011;70343;51.530;5.050;2023-09-08T00:53:16;9.73;;;8.73;;
80891;SDS011;70343;51.530;5.050;2023-09-08T00:55:43;9.30;;;7.70;;
80891;SDS011;70343;51.530;5.050;2023-09-08T00:58:11;11.38;;;8.75;;
80891;SDS011;70343;51.530;5.050;2023-09-08T01:00:36;9.35;;;8.10;;
80891;SDS011;70343;51.530;5.050;2023-09-08T01:03:02;10.65;;;8.00;;
80891;SDS011;70343;51.530;5.050;2023-09-08T01:05:28;9.57;;;7.95;;
80891;SDS011;70343;51.530;5.050;2023-09-08T01:07:54;10.57;;;7.93;;
80891;SDS011;70343;51.530;5.050;2023-09-08T01:10:21;11.25;;;9.23;;
80891;SDS011;70343;51.530;5.050;2023-09-08T01:12:46;15.25;;;8.82;;
80891;SDS011;70343;51.530;5.050;2023-09-08T01:15:12;9.43;;;7.88;;
80891;SDS011;70343;51.530;5.050;2023-09-08T01:17:38;10.57;;;8.80;;
80891;SDS011;70343;51.530;5.050;2023-09-08T01:20:05;10.57;;;8.02;;
80891;SDS011;70343;51.530;5.050;2023-09-08T01:22:45;9.90;;;8.20;;
80891;SDS011;70343;51.530;5.050;2023-09-08T01:25:21;12.63;;;8.98;;
80891;SDS011;70343;51.530;5.050;2023-09-08T01:27:54;9.57;;;7.38;;
80891;SDS011;70343;51.530;5.050;2023-09-08T01:30:23;10.35;;;8.93;;
80891;SDS011;70343;51.530;5.050;2023-09-08T01:32:50;10.65;;;8.25;;
80891;SDS011;70343;51.530;5.050;2023-09-08T01:35:17;10.23;;;8.98;;
80891;SDS011;70343;51.530;5.050;2023-09-08T01:37:46;10.98;;;9.02;;
80891;SDS011;70343;51.530;5.050;2023-09-08T01:40:14;9.02;;;7.85;;
80891;SDS011;70343;51.530;5.050;2023-09-08T01:42:41;10.07;;;8.52;;
80891;SDS011;70343;51.530;5.050;2023-09-08T01:45:07;10.95;;;8.32;;
80891;SDS011;70343;51.530;5.050;2023-09-08T01:47:33;9.60;;;8.23;;
80891;SDS011;70343;51.530;5.050;2023-09-08T01:49:59;9.45;;;8.50;;
80891;SDS011;70343;51.530;5.050;2023-09-08T01:52:25;9.02;;;7.93;;
80891;SDS011;70343;51.530;5.050;2023-09-08T01:54:51;11.00;;;8.35;;
80891;SDS011;70343;51.530;5.050;2023-09-08T01:57:17;11.02;;;8.38;;
80891;SDS011;70343;51.530;5.050;2023-09-08T01:59:42;11.93;;;8.63;;
80891;SDS011;70343;51.530;5.050;2023-09-08T02:02:10;10.45;;;8.63;;
80891;SDS011;70343;51.530;5.050;2023-09-08T02:04:36;10.65;;;9.55;;
80891;SDS011;70343;51.530;5.050;2023-09-08T02:07:01;9.77;;;8.38;;
80891;SDS011;70343;51.530;5.050;2023-09-08T02:11:57;10.88;;;8.65;;
80891;SDS011;70343;51.530;5.050;2023-09-08T02:14:23;11.18;;;8.32;;
80891;SDS011;70343;51.530;5.050;2023-09-08T02:16:49;9.57;;;8.43;;
80891;SDS011;70343;51.530;5.050;2023-09-08T02:19:14;9.88;;;8.55;;
80891;SDS011;70343;51.530;5.050;2023-09-08T02:21:41;9.73;;;8.63;;
80891;SDS011;70343;51.530;5.050;2023-09-08T02:24:06;10.23;;;9.02;;
80891;SDS011;70343;51.530;5.050;2023-09-08T02:26:32;11.32;;;9.15;;
80891;SDS011;70343;51.530;5.050;2023-09-08T02:28:59;11.32;;;8.60;;
80891;SDS011;70343;51.530;5.050;2023-09-08T02:31:28;10.52;;;8.73;;
80891;SDS011;70343;51.530;5.050;2023-09-08T02:33:54;10.55;;;9.45;;
80891;SDS011;70343;51.530;5.050;2023-09-08T02:36:20;9.90;;;8.40;;
80891;SDS011;70343;51.530;5.050;2023-09-08T02:38:54;9.95;;;8.85;;
80891;SDS011;70343;51.530;5.050;2023-09-08T02:41:21;10.65;;;9.13;;
80891;SDS011;70343;51.530;5.050;2023-09-08T02:43:47;9.18;;;8.23;;
80891;SDS011;70343;51.530;5.050;2023-09-08T02:46:13;12.52;;;9.43;;
80891;SDS011;70343;51.530;5.050;2023-09-08T02:48:39;9.85;;;8.27;;
80891;SDS011;70343;51.530;5.050;2023-09-08T02:51:06;10.32;;;9.07;;
80891;SDS011;70343;51.530;5.050;2023-09-08T02:53:31;9.93;;;8.73;;
80891;SDS011;70343;51.530;5.050;2023-09-08T02:55:57;10.65;;;9.55;;
80891;SDS011;70343;51.530;5.050;2023-09-08T02:58:24;9.80;;;8.80;;
80891;SDS011;70343;51.530;5.050;2023-09-08T03:00:51;11.18;;;9.63;;
80891;SDS011;70343;51.530;5.050;2023-09-08T03:03:17;13.20;;;9.18;;
80891;SDS011;70343;51.530;5.050;2023-09-08T03:05:43;11.90;;;9.25;;
80891;SDS011;70343;51.530;5.050;2023-09-08T03:08:09;12.07;;;9.50;;
80891;SDS011;70343;51.530;5.050;2023-09-08T03:10:35;12.63;;;9.80;;
80891;SDS011;70343;51.530;5.050;2023-09-08T03:13:05;11.32;;;9.45;;
80891;SDS011;70343;51.530;5.050;2023-09-08T03:15:31;11.45;;;9.18;;
80891;SDS011;70343;51.530;5.050;2023-09-08T03:17:57;11.65;;;9.18;;
80891;SDS011;70343;51.530;5.050;2023-09-08T03:20:26;11.35;;;10.13;;
80891;SDS011;70343;51.530;5.050;2023-09-08T03:22:54;11.65;;;9.75;;
80891;SDS011;70343;51.530;5.050;2023-09-08T03:25:20;11.40;;;10.07;;
80891;SDS011;70343;51.530;5.050;2023-09-08T03:27:46;12.10;;;10.30;;
80891;SDS011;70343;51.530;5.050;2023-09-08T03:30:12;14.50;;;11.55;;
80891;SDS011;70343;51.530;5.050;2023-09-08T03:32:38;13.25;;;11.00;;
80891;SDS011;70343;51.530;5.050;2023-09-08T03:35:04;13.05;;;10.63;;
80891;SDS011;70343;51.530;5.050;2023-09-08T03:37:33;12.48;;;11.18;;
80891;SDS011;70343;51.530;5.050;2023-09-08T03:39:59;12.85;;;11.30;;
80891;SDS011;70343;51.530;5.050;2023-09-08T03:42:25;12.80;;;10.23;;
80891;SDS011;70343;51.530;5.050;2023-09-08T03:44:50;13.55;;;11.60;;
80891;SDS011;70343;51.530;5.050;2023-09-08T03:47:16;12.63;;;11.32;;
80891;SDS011;70343;51.530;5.050;2023-09-08T03:49:41;13.05;;;11.70;;
80891;SDS011;70343;51.530;5.050;2023-09-08T03:52:07;11.77;;;10.50;;
80891;SDS011;70343;51.530;5.050;2023-09-08T03:54:32;13.23;;;11.73;;
80891;SDS011;70343;51.530;5.050;2023-09-08T03:56:58;12.60;;;11.23;;
80891;SDS011;70343;51.530;5.050;2023-09-08T03:59:23;13.32;;;11.88;;
80891;SDS011;70343;51.530;5.050;2023-09-08T04:01:49;13.68;;;11.90;;
80891;SDS011;70343;51.530;5.050;2023-09-08T04:04:15;15.85;;;11.90;;
80891;SDS011;70343;51.530;5.050;2023-09-08T04:06:41;12.38;;;11.02;;
80891;SDS011;70343;51.530;5.050;2023-09-08T04:09:06;13.18;;;10.88;;
80891;SDS011;70343;51.530;5.050;2023-09-08T04:11:32;12.82;;;10.70;;
80891;SDS011;70343;51.530;5.050;2023-09-08T04:13:58;11.98;;;10.55;;
80891;SDS011;70343;51.530;5.050;2023-09-08T04:16:23;13.50;;;12.10;;
80891;SDS011;70343;51.530;5.050;2023-09-08T04:18:49;13.95;;;11.25;;
80891;SDS011;70343;51.530;5.050;2023-09-08T04:21:14;12.15;;;10.07;;
80891;SDS011;70343;51.530;5.050;2023-09-08T04:23:40;12.68;;;11.38;;
80891;SDS011;70343;51.530;5.050;2023-09-08T04:26:05;12.15;;;10.75;;
80891;SDS011;70343;51.530;5.050;2023-09-08T04:28:31;10.23;;;9.18;;
80891;SDS011;70343;51.530;5.050;2023-09-08T04:30:57;15.15;;;12.38;;
80891;SDS011;70343;51.530;5.050;2023-09-08T04:33:23;12.45;;;10.52;;
80891;SDS011;70343;51.530;5.050;2023-09-08T04:35:49;16.00;;;11.85;;
80891;SDS011;70343;51.530;5.050;2023-09-08T04:38:15;14.32;;;12.02;;
80891;SDS011;70343;51.530;5.050;2023-09-08T04:40:40;13.50;;;11.13;;
80891;SDS011;70343;51.530;5.050;2023-09-08T04:43:07;14.25;;;12.13;;
80891;SDS011;70343;51.530;5.050;2023-09-08T04:45:33;15.00;;;11.88;;
80891;SDS011;70343;51.530;5.050;2023-09-08T04:47:58;11.88;;;10.65;;
80891;SDS011;70343;51.530;5.050;2023-09-08T04:50:24;15.18;;;12.85;;
80891;SDS011;70343;51.530;5.050;2023-09-08T04:52:49;12.95;;;10.88;;
80891;SDS011;70343;51.530;5.050;2023-09-08T04:55:15;13.25;;;11.27;;
80891;SDS011;70343;51.530;5.050;2023-09-08T04:57:41;13.35;;;10.77;;
80891;SDS011;70343;51.530;5.050;2023-09-08T05:00:07;14.07;;;11.45;;
80891;SDS011;70343;51.530;5.050;2023-09-08T05:02:34;13.23;;;11.82;;
80891;SDS011;70343;51.530;5.050;2023-09-08T05:04:59;14.68;;;12.27;;
80891;SDS011;70343;51.530;5.050;2023-09-08T05:07:25;12.82;;;11.45;;
80891;SDS011;70343;51.530;5.050;2023-09-08T05:09:51;15.05;;;12.07;;
80891;SDS011;70343;51.530;5.050;2023-09-08T05:12:17;15.25;;;12.88;;
80891;SDS011;70343;51.530;5.050;2023-09-08T05:14:44;16.50;;;12.60;;
80891;SDS011;70343;51.530;5.050;2023-09-08T05:17:09;17.33;;;12.35;;
80891;SDS011;70343;51.530;5.050;2023-09-08T05:19:35;12.27;;;10.13;;
80891;SDS011;70343;51.530;5.050;2023-09-08T05:22:01;11.93;;;10.05;;
80891;SDS011;70343;51.530;5.050;2023-09-08T05:24:28;14.73;;;11.43;;
80891;SDS011;70343;51.530;5.050;2023-09-08T05:26:54;13.23;;;10.63;;
80891;SDS011;70343;51.530;5.050;2023-09-08T05:29:20;14.63;;;12.63;;
80891;SDS011;70343;51.530;5.050;2023-09-08T05:31:45;15.32;;;10.82;;
80891;SDS011;70343;51.530;5.050;2023-09-08T05:34:11;11.75;;;10.00;;
80891;SDS011;70343;51.530;5.050;2023-09-08T05:36:36;13.40;;;10.85;;
80891;SDS011;70343;51.530;5.050;2023-09-08T05:39:03;15.10;;;12.18;;
80891;SDS011;70343;51.530;5.050;2023-09-08T05:41:30;13.65;;;12.20;;
80891;SDS011;70343;51.530;5.050;2023-09-08T05:43:57;13.43;;;10.30;;
80891;SDS011;70343;51.530;5.050;2023-09-08T05:46:23;14.90;;;11.15;;
80891;SDS011;70343;51.530;5.050;2023-09-08T05:48:48;17.85;;;12.68;;
80891;SDS011;70343;51.530;5.050;2023-09-08T05:51:14;14.63;;;11.40;;
80891;SDS011;70343;51.530;5.050;2023-09-08T05:53:41;16.35;;;12.05;;
80891;SDS011;70343;51.530;5.050;2023-09-08T05:56:07;13.40;;;11.60;;
80891;SDS011;70343;51.530;5.050;2023-09-08T05:58:33;14.02;;;11.15;;
80891;SDS011;70343;51.530;5.050;2023-09-08T06:01:00;15.20;;;12.38;;
80891;SDS011;70343;51.530;5.050;2023-09-08T06:03:27;14.50;;;11.60;;
80891;SDS011;70343;51.530;5.050;2023-09-08T06:05:52;12.75;;;11.38;;
80891;SDS011;70343;51.530;5.050;2023-09-08T06:08:19;14.93;;;10.95;;
80891;SDS011;70343;51.530;5.050;2023-09-08T06:10:45;15.05;;;11.25;;
80891;SDS011;70343;51.530;5.050;2023-09-08T06:13:10;13.80;;;11.75;;
80891;SDS011;70343;51.530;5.050;2023-09-08T06:15:37;13.57;;;10.57;;
80891;SDS011;70343;51.530;5.050;2023-09-08T06:18:03;16.63;;;11.98;;
80891;SDS011;70343;51.530;5.050;2023-09-08T06:20:29;15.50;;;11.80;;
80891;SDS011;70343;51.530;5.050;2023-09-08T06:22:55;15.65;;;12.05;;
80891;SDS011;70343;51.530;5.050;2023-09-08T06:25:20;12.95;;;11.40;;
80891;SDS011;70343;51.530;5.050;2023-09-08T06:27:46;14.20;;;12.52;;
80891;SDS011;70343;51.530;5.050;2023-09-08T06:30:12;11.88;;;10.68;;
80891;SDS011;70343;51.530;5.050;2023-09-08T06:32:42;15.65;;;12.15;;
80891;SDS011;70343;51.530;5.050;2023-09-08T06:35:07;16.13;;;12.30;;
80891;SDS011;70343;51.530;5.050;2023-09-08T06:37:37;16.00;;;12.77;;
80891;SDS011;70343;51.530;5.050;2023-09-08T06:40:04;13.15;;;11.68;;
80891;SDS011;70343;51.530;5.050;2023-09-08T06:42:32;16.33;;;12.68;;
80891;SDS011;70343;51.530;5.050;2023-09-08T06:45:07;18.33;;;12.68;;
80891;SDS011;70343;51.530;5.050;2023-09-08T06:47:33;14.18;;;11.35;;
80891;SDS011;70343;51.530;5.050;2023-09-08T06:49:59;14.07;;;11.73;;
80891;SDS011;70343;51.530;5.050;2023-09-08T06:52:24;15.13;;;13.18;;
80891;SDS011;70343;51.530;5.050;2023-09-08T06:54:50;14.05;;;12.65;;
80891;SDS011;70343;51.530;5.050;2023-09-08T06:57:17;14.73;;;13.23;;
80891;SDS011;70343;51.530;5.050;2023-09-08T06:59:44;12.45;;;11.25;;
80891;SDS011;70343;51.530;5.050;2023-09-08T07:02:10;14.30;;;11.68;;
80891;SDS011;70343;51.530;5.050;2023-09-08T07:04:35;14.10;;;11.82;;
80891;SDS011;70343;51.530;5.050;2023-09-08T07:07:01;13.82;;;12.02;;
80891;SDS011;70343;51.530;5.050;2023-09-08T07:09:36;15.93;;;12.20;;
80891;SDS011;70343;51.530;5.050;2023-09-08T07:12:03;11.48;;;10.38;;
80891;SDS011;70343;51.530;5.050;2023-09-08T07:14:30;12.30;;;10.95;;
80891;SDS011;70343;51.530;5.050;2023-09-08T07:16:56;12.32;;;11.18;;
80891;SDS011;70343;51.530;5.050;2023-09-08T07:19:21;12.60;;;10.77;;
80891;SDS011;70343;51.530;5.050;2023-09-08T07:21:47;12.73;;;11.45;;
80891;SDS011;70343;51.530;5.050;2023-09-08T07:24:13;11.98;;;10.73;;
80891;SDS011;70343;51.530;5.050;2023-09-08T07:26:38;11.85;;;10.63;;
80891;SDS011;70343;51.530;5.050;2023-09-08T07:29:04;11.90;;;10.80;;
80891;SDS011;70343;51.530;5.050;2023-09-08T07:31:30;14.00;;;10.80;;
80891;SDS011;70343;51.530;5.050;2023-09-08T07:33:56;11.48;;;10.38;;
80891;SDS011;70343;51.530;5.050;2023-09-08T07:36:22;11.23;;;9.38;;
80891;SDS011;70343;51.530;5.050;2023-09-08T07:38:47;12.50;;;10.15;;
80891;SDS011;70343;51.530;5.050;2023-09-08T07:41:13;12.95;;;10.05;;
80891;SDS011;70343;51.530;5.050;2023-09-08T07:43:40;11.18;;;10.13;;
80891;SDS011;70343;51.530;5.050;2023-09-08T07:46:08;10.57;;;9.48;;
80891;SDS011;70343;51.530;5.050;2023-09-08T07:48:33;10.77;;;9.65;;
80891;SDS011;70343;51.530;5.050;2023-09-08T07:50:59;11.13;;;9.60;;
80891;SDS011;70343;51.530;5.050;2023-09-08T07:53:26;10.15;;;9.15;;
80891;SDS011;70343;51.530;5.050;2023-09-08T07:55:51;11.35;;;9.13;;
80891;SDS011;70343;51.530;5.050;2023-09-08T07:58:17;10.32;;;8.48;;
80891;SDS011;70343;51.530;5.050;2023-09-08T08:00:43;8.60;;;7.80;;
80891;SDS011;70343;51.530;5.050;2023-09-08T08:03:08;10.55;;;8.95;;
80891;SDS011;70343;51.530;5.050;2023-09-08T08:05:34;9.13;;;8.25;;
80891;SDS011;70343;51.530;5.050;2023-09-08T08:07:59;9.45;;;8.25;;
80891;SDS011;70343;51.530;5.050;2023-09-08T08:10:25;10.77;;;9.15;;
80891;SDS011;70343;51.530;5.050;2023-09-08T08:12:51;10.73;;;9.63;;
80891;SDS011;70343;51.530;5.050;2023-09-08T08:15:18;10.43;;;9.18;;
80891;SDS011;70343;51.530;5.050;2023-09-08T08:17:46;10.98;;;9.88;;
80891;SDS011;70343;51.530;5.050;2023-09-08T08:20:12;10.40;;;9.40;;
80891;SDS011;70343;51.530;5.050;2023-09-08T08:22:45;11.20;;;9.45;;
80891;SDS011;70343;51.530;5.050;2023-09-08T08:25:11;10.30;;;9.25;;
80891;SDS011;70343;51.530;5.050;2023-09-08T08:27:39;10.20;;;9.30;;
80891;SDS011;70343;51.530;5.050;2023-09-08T08:30:05;9.73;;;8.52;;
80891;SDS011;70343;51.530;5.050;2023-09-08T08:32:32;10.00;;;9.00;;
80891;SDS011;70343;51.530;5.050;2023-09-08T08:34:58;10.02;;;9.02;;
80891;SDS011;70343;51.530;5.050;2023-09-08T08:37:23;10.32;;;9.23;;
80891;SDS011;70343;51.530;5.050;2023-09-08T08:39:49;11.13;;;8.93;;
80891;SDS011;70343;51.530;5.050;2023-09-08T08:42:15;9.48;;;8.07;;
80891;SDS011;70343;51.530;5.050;2023-09-08T08:44:40;10.05;;;9.10;;
80891;SDS011;70343;51.530;5.050;2023-09-08T08:47:07;10.18;;;8.82;;
80891;SDS011;70343;51.530;5.050;2023-09-08T08:49:33;10.25;;;9.25;;
80891;SDS011;70343;51.530;5.050;2023-09-08T08:51:59;10.82;;;9.48;;
80891;SDS011;70343;51.530;5.050;2023-09-08T08:54:25;10.13;;;9.10;;
80891;SDS011;70343;51.530;5.050;2023-09-08T08:56:51;10.88;;;8.30;;
80891;SDS011;70343;51.530;5.050;2023-09-08T08:59:17;11.32;;;9.23;;
80891;SDS011;70343;51.530;5.050;2023-09-08T09:01:43;9.55;;;8.65;;
80891;SDS011;70343;51.530;5.050;2023-09-08T09:04:09;9.70;;;8.70;;
80891;SDS011;70343;51.530;5.050;2023-09-08T09:06:35;10.27;;;8.15;;
80891;SDS011;70343;51.530;5.050;2023-09-08T09:09:02;9.90;;;8.68;;
80891;SDS011;70343;51.530;5.050;2023-09-08T09:11:29;11.23;;;7.70;;
80891;SDS011;70343;51.530;5.050;2023-09-08T09:13:57;9.40;;;8.60;;
80891;SDS011;70343;51.530;5.050;2023-09-08T09:16:23;8.80;;;7.75;;
80891;SDS011;70343;51.530;5.050;2023-09-08T09:18:56;10.48;;;8.52;;
80891;SDS011;70343;51.530;5.050;2023-09-08T09:21:23;9.23;;;8.18;;
80891;SDS011;70343;51.530;5.050;2023-09-08T09:23:50;9.88;;;8.88;;
80891;SDS011;70343;51.530;5.050;2023-09-08T09:26:23;8.68;;;7.93;;
80891;SDS011;70343;51.530;5.050;2023-09-08T09:31:17;9.05;;;8.18;;
80891;SDS011;70343;51.530;5.050;2023-09-08T09:33:44;14.27;;;11.15;;
80891;SDS011;70343;51.530;5.050;2023-09-08T09:36:10;8.75;;;7.75;;
80891;SDS011;70343;51.530;5.050;2023-09-08T09:38:45;8.63;;;7.65;;
80891;SDS011;70343;51.530;5.050;2023-09-08T09:41:12;9.15;;;7.90;;
80891;SDS011;70343;51.530;5.050;2023-09-08T09:43:37;9.57;;;7.78;;
80891;SDS011;70343;51.530;5.050;2023-09-08T09:46:03;8.43;;;7.55;;
80891;SDS011;70343;51.530;5.050;2023-09-08T09:48:33;10.48;;;8.48;;
80891;SDS011;70343;51.530;5.050;2023-09-08T09:51:00;9.45;;;7.93;;
80891;SDS011;70343;51.530;5.050;2023-09-08T09:56:07;8.90;;;8.02;;
80891;SDS011;70343;51.530;5.050;2023-09-08T09:58:35;9.75;;;8.82;;
80891;SDS011;70343;51.530;5.050;2023-09-08T10:01:02;10.90;;;8.32;;
80891;SDS011;70343;51.530;5.050;2023-09-08T10:03:29;8.93;;;7.82;;
80891;SDS011;70343;51.530;5.050;2023-09-08T10:05:56;8.80;;;8.00;;
80891;SDS011;70343;51.530;5.050;2023-09-08T10:08:22;9.90;;;9.00;;
80891;SDS011;70343;51.530;5.050;2023-09-08T10:10:48;9.80;;;8.93;;
80891;SDS011;70343;51.530;5.050;2023-09-08T10:13:17;9.60;;;8.70;;
80891;SDS011;70343;51.530;5.050;2023-09-08T10:15:48;8.80;;;8.00;;
80891;SDS011;70343;51.530;5.050;2023-09-08T10:18:15;9.52;;;8.43;;
80891;SDS011;70343;51.530;5.050;2023-09-08T10:20:44;9.45;;;8.43;;
80891;SDS011;70343;51.530;5.050;2023-09-08T10:23:27;10.75;;;8.45;;
80891;SDS011;70343;51.530;5.050;2023-09-08T10:25:56;9.20;;;8.30;;
80891;SDS011;70343;51.530;5.050;2023-09-08T10:28:28;10.48;;;8.10;;
80891;SDS011;70343;51.530;5.050;2023-09-08T10:30:54;9.68;;;8.55;;
80891;SDS011;70343;51.530;5.050;2023-09-08T10:33:20;9.77;;;8.85;;
80891;SDS011;70343;51.530;5.050;2023-09-08T10:35:49;9.43;;;8.52;;
80891;SDS011;70343;51.530;5.050;2023-09-08T10:38:21;9.77;;;8.55;;
80891;SDS011;70343;51.530;5.050;2023-09-08T10:40:48;9.02;;;8.07;;
80891;SDS011;70343;51.530;5.050;2023-09-08T10:43:17;9.10;;;8.25;;
80891;SDS011;70343;51.530;5.050;2023-09-08T10:45:43;9.23;;;8.32;;
80891;SDS011;70343;51.530;5.050;2023-09-08T10:48:11;11.32;;;8.23;;
80891;SDS011;70343;51.530;5.050;2023-09-08T10:50:39;9.32;;;8.50;;
80891;SDS011;70343;51.530;5.050;2023-09-08T10:53:16;9.18;;;8.05;;
80891;SDS011;70343;51.530;5.050;2023-09-08T10:55:42;9.20;;;8.20;;
80891;SDS011;70343;51.530;5.050;2023-09-08T11:00:50;8.82;;;7.95;;
80891;SDS011;70343;51.530;5.050;2023-09-08T11:06:19;8.90;;;8.07;;
80891;SDS011;70343;51.530;5.050;2023-09-08T11:08:49;9.13;;;8.18;;
80891;SDS011;70343;51.530;5.050;2023-09-08T11:11:20;9.52;;;8.48;;
80891;SDS011;70343;51.530;5.050;2023-09-08T11:13:46;10.20;;;8.75;;
80891;SDS011;70343;51.530;5.050;2023-09-08T11:16:12;8.32;;;7.57;;
80891;SDS011;70343;51.530;5.050;2023-09-08T11:18:39;10.68;;;7.55;;
80891;SDS011;70343;51.530;5.050;2023-09-08T11:21:07;9.23;;;8.30;;
80891;SDS011;70343;51.530;5.050;2023-09-08T11:25:59;9.65;;;8.23;;
80891;SDS011;70343;51.530;5.050;2023-09-08T11:28:26;8.82;;;7.35;;
80891;SDS011;70343;51.530;5.050;2023-09-08T11:30:53;8.63;;;7.82;;
80891;SDS011;70343;51.530;5.050;2023-09-08T11:33:23;8.35;;;7.65;;
80891;SDS011;70343;51.530;5.050;2023-09-08T11:35:52;9.45;;;8.45;;
80891;SDS011;70343;51.530;5.050;2023-09-08T11:38:23;8.82;;;8.02;;
80891;SDS011;70343;51.530;5.050;2023-09-08T11:40:50;9.52;;;8.32;;
80891;SDS011;70343;51.530;5.050;2023-09-08T11:43:16;8.70;;;7.80;;
80891;SDS011;70343;51.530;5.050;2023-09-08T11:45:41;9.35;;;8.32;;
80891;SDS011;70343;51.530;5.050;2023-09-08T11:48:08;9.45;;;8.27;;
80891;SDS011;70343;51.530;5.050;2023-09-08T11:50:34;10.98;;;7.72;;
80891;SDS011;70343;51.530;5.050;2023-09-08T11:53:00;8.35;;;7.55;;
80891;SDS011;70343;51.530;5.050;2023-09-08T11:55:27;8.80;;;7.90;;
80891;SDS011;70343;51.530;5.050;2023-09-08T11:57:54;8.43;;;7.65;;
80891;SDS011;70343;51.530;5.050;2023-09-08T12:00:23;9.15;;;8.25;;
80891;SDS011;70343;51.530;5.050;2023-09-08T12:02:50;8.57;;;7.57;;
80891;SDS011;70343;51.530;5.050;2023-09-08T12:05:23;9.85;;;8.07;;
80891;SDS011;70343;51.530;5.050;2023-09-08T12:07:53;9.30;;;8.00;;
80891;SDS011;70343;51.530;5.050;2023-09-08T12:10:21;8.40;;;7.55;;
80891;SDS011;70343;51.530;5.050;2023-09-08T12:12:51;9.18;;;7.25;;
80891;SDS011;70343;51.530;5.050;2023-09-08T12:15:40;8.75;;;7.95;;
80891;SDS011;70343;51.530;5.050;2023-09-08T12:18:13;11.07;;;7.93;;
80891;SDS011;70343;51.530;5.050;2023-09-08T12:20:42;9.75;;;7.97;;
80891;SDS011;70343;51.530;5.050;2023-09-08T12:23:19;8.38;;;7.68;;
80891;SDS011;70343;51.530;5.050;2023-09-08T12:25:49;10.88;;;7.15;;
80891;SDS011;70343;51.530;5.050;2023-09-08T12:28:17;7.50;;;6.85;;
80891;SDS011;70343;51.530;5.050;2023-09-08T12:30:44;8.95;;;6.72;;
80891;SDS011;70343;51.530;5.050;2023-09-08T12:33:10;8.15;;;7.13;;
80891;SDS011;70343;51.530;5.050;2023-09-08T12:35:36;7.55;;;6.65;;
80891;SDS011;70343;51.530;5.050;2023-09-08T12:38:02;8.05;;;6.70;;
80891;SDS011;70343;51.530;5.050;2023-09-08T12:40:34;7.72;;;6.97;;
80891;SDS011;70343;51.530;5.050;2023-09-08T12:43:01;7.32;;;6.63;;
80891;SDS011;70343;51.530;5.050;2023-09-08T12:45:27;7.90;;;6.22;;
80891;SDS011;70343;51.530;5.050;2023-09-08T12:47:53;7.97;;;6.38;;
80891;SDS011;70343;51.530;5.050;2023-09-08T12:50:23;9.13;;;6.82;;
80891;SDS011;70343;51.530;5.050;2023-09-08T12:52:49;6.75;;;6.03;;
80891;SDS011;70343;51.530;5.050;2023-09-08T12:55:15;9.93;;;6.80;;
80891;SDS011;70343;51.530;5.050;2023-09-08T12:57:41;8.00;;;6.63;;
80891;SDS011;70343;51.530;5.050;2023-09-08T13:00:06;8.35;;;6.30;;
80891;SDS011;70343;51.530;5.050;2023-09-08T13:02:32;7.10;;;6.07;;
80891;SDS011;70343;51.530;5.050;2023-09-08T13:04:59;8.52;;;5.93;;
80891;SDS011;70343;51.530;5.050;2023-09-08T13:07:24;9.05;;;6.03;;
80891;SDS011;70343;51.530;5.050;2023-09-08T13:09:51;8.82;;;5.93;;
80891;SDS011;70343;51.530;5.050;2023-09-08T13:12:16;6.03;;;5.43;;
80891;SDS011;70343;51.530;5.050;2023-09-08T13:14:42;6.47;;;5.93;;
80891;SDS011;70343;51.530;5.050;2023-09-08T13:17:11;8.27;;;6.03;;
80891;SDS011;70343;51.530;5.050;2023-09-08T13:19:37;6.22;;;5.68;;
80891;SDS011;70343;51.530;5.050;2023-09-08T13:22:05;9.13;;;6.10;;
80891;SDS011;70343;51.530;5.050;2023-09-08T13:24:31;6.95;;;5.95;;
80891;SDS011;70343;51.530;5.050;2023-09-08T13:26:56;10.27;;;7.15;;
80891;SDS011;70343;51.530;5.050;2023-09-08T13:29:22;9.82;;;7.03;;
80891;SDS011;70343;51.530;5.050;2023-09-08T13:31:48;7.72;;;5.97;;
80891;SDS011;70343;51.530;5.050;2023-09-08T13:34:13;7.35;;;5.60;;
80891;SDS011;70343;51.530;5.050;2023-09-08T13:36:39;6.35;;;5.75;;
80891;SDS011;70343;51.530;5.050;2023-09-08T13:39:04;8.13;;;5.85;;
80891;SDS011;70343;51.530;5.050;2023-09-08T13:41:46;7.50;;;5.78;;
80891;SDS011;70343;51.530;5.050;2023-09-08T13:44:22;6.50;;;5.75;;
80891;SDS011;70343;51.530;5.050;2023-09-08T13:46:49;7.60;;;5.60;;
80891;SDS011;70343;51.530;5.050;2023-09-08T13:49:15;6.97;;;5.50;;
80891;SDS011;70343;51.530;5.050;2023-09-08T13:51:42;7.47;;;5.97;;
80891;SDS011;70343;51.530;5.050;2023-09-08T13:54:08;6.70;;;5.72;;
80891;SDS011;70343;51.530;5.050;2023-09-08T13:56:34;7.03;;;5.60;;
80891;SDS011;70343;51.530;5.050;2023-09-08T13:59:00;8.10;;;5.90;;
80891;SDS011;70343;51.530;5.050;2023-09-08T14:01:26;11.82;;;5.93;;
80891;SDS011;70343;51.530;5.050;2023-09-08T14:03:54;6.20;;;5.60;;
80891;SDS011;70343;51.530;5.050;2023-09-08T14:06:23;6.75;;;5.57;;
80891;SDS011;70343;51.530;5.050;2023-09-08T14:08:51;8.98;;;6.13;;
80891;SDS011;70343;51.530;5.050;2023-09-08T14:11:17;6.30;;;5.72;;
80891;SDS011;70343;51.530;5.050;2023-09-08T14:13:42;8.70;;;6.30;;
80891;SDS011;70343;51.530;5.050;2023-09-08T14:16:08;7.47;;;5.88;;
80891;SDS011;70343;51.530;5.050;2023-09-08T14:18:34;6.75;;;6.10;;
80891;SDS011;70343;51.530;5.050;2023-09-08T14:21:00;7.90;;;5.80;;
80891;SDS011;70343;51.530;5.050;2023-09-08T14:23:25;6.38;;;5.72;;
80891;SDS011;70343;51.530;5.050;2023-09-08T14:25:51;7.72;;;5.63;;
80891;SDS011;70343;51.530;5.050;2023-09-08T14:28:17;7.45;;;5.32;;
80891;SDS011;70343;51.530;5.050;2023-09-08T14:30:43;6.45;;;5.05;;
80891;SDS011;70343;51.530;5.050;2023-09-08T14:33:09;7.45;;;5.30;;
80891;SDS011;70343;51.530;5.050;2023-09-08T14:35:35;7.80;;;5.30;;
80891;SDS011;70343;51.530;5.050;2023-09-08T14:38:01;8.18;;;6.32;;
80891;SDS011;70343;51.530;5.050;2023-09-08T14:40:26;6.60;;;6.00;;
80891;SDS011;70343;51.530;5.050;2023-09-08T14:42:52;11.32;;;5.43;;
80891;SDS011;70343;51.530;5.050;2023-09-08T14:45:17;6.05;;;5.50;;
80891;SDS011;70343;51.530;5.050;2023-09-08T14:47:43;5.90;;;5.28;;
80891;SDS011;70343;51.530;5.050;2023-09-08T14:50:08;5.45;;;4.95;;